createdAt,value
2023-03-26T05:15:23.367Z,2.9
2023-03-26T05:30:18.764Z,20.2
2023-03-26T05:45:19.241Z,33.1
2023-03-26T06:00:19.429Z,49.5
2023-03-26T06:15:19.190Z,69.9
2023-03-26T06:30:19.333Z,110
2023-03-26T06:45:18.551Z,98.8
2023-03-26T07:00:19.219Z,95.9
2023-03-26T07:15:19.705Z,117.8
2023-03-26T07:30:18.866Z,155.7
2023-03-26T07:45:18.703Z,167.2
2023-03-26T08:00:18.724Z,191.8
2023-03-26T08:15:19.380Z,212
2023-03-26T08:30:28.836Z,211.5
2023-03-26T08:45:18.530Z,304.3
2023-03-26T09:00:18.763Z,308.4
2023-03-26T09:15:19.134Z,276.9
2023-03-26T09:30:19.265Z,285
2023-03-26T09:45:18.772Z,359.2
2023-03-26T10:00:18.587Z,298.8
2023-03-26T10:15:19.134Z,347.1
2023-03-26T10:30:19.180Z,332.3
2023-03-26T10:45:19.228Z,382.4
2023-03-26T11:00:18.680Z,400.1
2023-03-26T11:15:18.797Z,362.5
2023-03-26T11:30:19.252Z,340.6
2023-03-26T11:45:19.285Z,471.1
2023-03-26T12:00:20.609Z,447.7
2023-03-26T12:15:19.406Z,384.7
2023-03-26T12:30:18.533Z,448
2023-03-26T12:45:19.426Z,521.9
2023-03-26T13:00:18.899Z,566.8
2023-03-26T13:15:18.994Z,795.7
2023-03-26T13:30:18.849Z,1149.6
2023-03-26T13:45:18.997Z,6387.5
2023-03-26T14:00:18.712Z,4340.6
2023-03-26T14:15:18.632Z,5095.3
2023-03-26T14:30:19.575Z,4611.6
2023-03-26T14:45:19.543Z,3762.6
2023-03-26T15:00:18.915Z,2808.5
2023-03-26T15:15:29.615Z,1016.4
2023-03-26T15:30:19.149Z,2191.6
2023-03-26T15:45:18.696Z,1932.7
2023-03-26T16:00:18.903Z,262.4
2023-03-26T16:15:18.813Z,1230.1
2023-03-26T16:30:20.868Z,308
2023-03-26T16:45:25.190Z,456.7
2023-03-26T17:00:19.066Z,269.8
2023-03-26T17:15:18.766Z,340.4
2023-03-26T17:30:18.592Z,50.2
2023-03-26T17:45:18.643Z,14.5
2023-03-26T18:00:19.126Z,3.3
2023-03-26T18:15:19.243Z,1.5
2023-03-26T18:31:14.945Z,1.5
2023-03-26T18:45:28.444Z,1.5
2023-03-26T19:00:28.637Z,1.5
